Bell Center, Wisconsin
Current Conditions -  °F | °C
As of 2:53 PM on Thursday 18 Dec 2014 (Local Time) from KOVS Reporting Station
Overcast Overcast  
Wind Chill: 28°   Ceiling: 2400
Heat Index: 28°   Visibility: 10mi
Dew Point: 17°   Wind: 0mph
Humidity: 63%   Direction: NA
Pressure: 30.26"   Gusts: NA
Location:  43.2876°N, 90.8505°W
Report Text: KOVS 182053Z AUTO 00000KT 10SM OVC024 M02/M08 A3026 RMK AO2 SLP259 T10221083 55010
Loading
Personal Weather Stations






























Interactive Weather Map New forecast layout! Learn more

10-Day Weather Forecast

Advertisements
Track Severe Weather on mobile